createdAt,value
2023-01-19T00:00:56.651Z,98984.47
2023-01-19T00:03:23.849Z,98977.75
2023-01-19T00:05:51.646Z,98996.06
2023-01-19T00:08:18.906Z,98985.28
2023-01-19T00:10:46.925Z,98982.31
2023-01-19T00:13:14.817Z,98982.31
2023-01-19T00:15:41.875Z,98972.75
2023-01-19T00:18:10.610Z,98970.09
2023-01-19T00:20:41.608Z,98982.22
2023-01-19T00:23:09.600Z,98959.41
2023-01-19T00:25:43.116Z,98968.88
2023-01-19T00:28:11.118Z,98978.00
2023-01-19T00:30:38.634Z,98977.81
2023-01-19T00:33:05.682Z,98974.94
2023-01-19T00:35:32.793Z,98986.19
2023-01-19T00:38:00.132Z,98974.69
2023-01-19T00:40:27.949Z,98977.31
2023-01-19T00:42:55.368Z,98979.94
2023-01-19T00:45:24.244Z,98980.66
2023-01-19T00:47:57.440Z,98971.59
2023-01-19T00:50:26.106Z,98973.00
2023-01-19T00:52:54.018Z,98973.25
2023-01-19T00:55:21.333Z,98978.78
2023-01-19T00:57:49.016Z,98972.66
2023-01-19T01:00:18.092Z,98972.81
2023-01-19T01:02:45.828Z,98970.03
2023-01-19T01:05:13.699Z,98961.28
2023-01-19T01:07:41.454Z,98957.97
2023-01-19T01:10:10.137Z,98948.72
2023-01-19T01:12:38.138Z,98947.28
2023-01-19T01:15:09.173Z,98943.00
2023-01-19T01:17:36.822Z,98956.47
2023-01-19T01:20:04.994Z,98963.31
2023-01-19T01:22:32.033Z,98970.88
2023-01-19T01:24:59.392Z,98961.88
2023-01-19T01:27:26.939Z,98954.81
2023-01-19T01:29:53.945Z,98965.81
2023-01-19T01:32:21.259Z,98962.47
2023-01-19T01:34:48.841Z,98953.84
2023-01-19T01:37:16.084Z,98959.63
2023-01-19T01:39:43.213Z,98973.50
2023-01-19T01:42:16.087Z,98943.44
2023-01-19T01:45:00.757Z,98959.34
2023-01-19T01:47:37.504Z,98960.78
2023-01-19T01:50:07.779Z,98964.84
2023-01-19T01:52:38.111Z,98962.47
2023-01-19T01:55:07.399Z,98964.97
2023-01-19T01:57:39.568Z,98972.75
2023-01-19T02:00:07.037Z,98977.75
2023-01-19T02:02:52.342Z,98965.41
2023-01-19T02:05:30.047Z,98972.22
2023-01-19T02:08:23.587Z,98967.66
2023-01-19T02:11:09.656Z,98965.72
2023-01-19T02:13:39.320Z,98963.81
2023-01-19T02:16:08.226Z,98940.34
2023-01-19T02:18:36.050Z,98944.91
2023-01-19T02:21:06.016Z,98942.00
2023-01-19T02:23:37.719Z,98950.88
2023-01-19T02:26:07.502Z,98945.59
2023-01-19T02:28:35.060Z,98956.75
2023-01-19T02:31:04.358Z,98949.66
2023-01-19T02:33:33.908Z,98945.38
2023-01-19T02:36:01.005Z,98949.81
2023-01-19T02:38:38.271Z,98951.47
2023-01-19T02:41:08.674Z,98959.25
2023-01-19T02:43:37.764Z,98966.84
2023-01-19T02:46:04.844Z,98971.13
2023-01-19T02:48:32.265Z,98968.88
2023-01-19T02:51:06.845Z,98976.66
2023-01-19T02:53:52.217Z,98965.81
2023-01-19T02:56:37.477Z,98958.88
2023-01-19T02:59:23.713Z,98954.38
2023-01-19T03:02:07.237Z,98946.31
2023-01-19T03:04:37.153Z,98950.31
2023-01-19T03:07:16.822Z,98958.66
2023-01-19T03:09:50.367Z,98939.91
2023-01-19T03:12:25.729Z,98956.28
2023-01-19T03:14:56.343Z,98941.72
2023-01-19T03:17:23.872Z,98958.47
2023-01-19T03:19:51.547Z,98962.06
2023-01-19T03:22:25.588Z,98958.47
2023-01-19T03:24:55.409Z,98965.16
2023-01-19T03:27:31.508Z,98953.19
2023-01-19T03:30:01.530Z,98957.63
2023-01-19T03:32:35.060Z,98978.00
2023-01-19T03:35:04.447Z,98974.78
2023-01-19T03:37:32.406Z,99005.03
2023-01-19T03:40:00.186Z,99000.75
2023-01-19T03:42:28.641Z,99008.66
2023-01-19T03:44:56.746Z,99014.06
2023-01-19T03:47:24.239Z,99021.22
2023-01-19T03:49:53.235Z,99019.66
2023-01-19T03:52:34.049Z,99023.13
2023-01-19T03:55:02.271Z,99014.50
2023-01-19T03:57:29.566Z,99009.34
2023-01-19T03:59:57.405Z,99010.06
2023-01-19T04:02:25.144Z,99025.50
2023-01-19T04:04:52.511Z,99014.00
2023-01-19T04:07:19.731Z,99035.09
2023-01-19T04:09:48.070Z,99029.94
2023-01-19T04:12:15.923Z,99034.13
2023-01-19T04:14:42.962Z,99047.19
2023-01-19T04:17:11.002Z,99052.63
2023-01-19T04:19:38.442Z,99058.75
2023-01-19T04:22:05.467Z,99066.88
2023-01-19T04:24:32.521Z,99084.34
2023-01-19T04:26:59.763Z,99073.31
2023-01-19T04:29:26.960Z,99084.56
2023-01-19T04:31:54.949Z,99090.53
2023-01-19T04:34:22.241Z,99104.75
2023-01-19T04:36:51.492Z,99086.16
2023-01-19T04:39:18.625Z,99070.09
2023-01-19T04:41:45.864Z,99076.72
2023-01-19T04:44:14.206Z,99056.22
2023-01-19T04:46:41.785Z,99064.84
2023-01-19T04:49:09.444Z,99041.22
2023-01-19T04:51:37.980Z,99053.59
2023-01-19T04:54:05.295Z,99055.69
2023-01-19T04:56:37.405Z,99062.66
2023-01-19T04:59:04.633Z,99066.00
2023-01-19T05:01:31.958Z,99069.34
2023-01-19T05:03:59.687Z,99056.22
2023-01-19T05:11:55.469Z,99071.59
2023-01-19T05:14:23.253Z,99071.72
2023-01-19T05:17:00.008Z,99069.47
2023-01-19T05:19:29.524Z,99070.69
2023-01-19T05:21:57.155Z,99060.97
2023-01-19T05:24:27.637Z,99065.16
2023-01-19T05:29:37.101Z,99068.13
2023-01-19T05:32:15.380Z,99080.19
2023-01-19T05:34:53.469Z,99093.28
2023-01-19T05:37:21.886Z,99103.56
2023-01-19T05:39:53.740Z,99101.81
2023-01-19T05:42:21.567Z,99092.22
2023-01-19T05:44:49.964Z,99091.72
2023-01-19T05:47:17.402Z,99104.50
2023-01-19T05:49:44.937Z,99096.28
2023-01-19T05:52:30.988Z,99106.47
2023-01-19T05:55:26.069Z,99120.94
2023-01-19T05:57:58.876Z,99124.53
2023-01-19T06:00:32.560Z,99130.13
2023-01-19T06:03:01.337Z,99129.06
2023-01-19T06:05:34.332Z,99145.84
2023-01-19T06:08:04.272Z,99146.31
2023-01-19T06:10:31.497Z,99147.44
2023-01-19T06:13:02.466Z,99137.16
2023-01-19T06:15:30.170Z,99147.72
2023-01-19T06:17:57.414Z,99152.72
2023-01-19T06:20:24.602Z,99139.09
2023-01-19T06:23:01.952Z,99138.00
2023-01-19T06:25:29.592Z,99152.28
2023-01-19T06:27:58.910Z,99160.19
2023-01-19T06:30:26.277Z,99156.03
2023-01-19T06:32:53.793Z,99163.66
2023-01-19T06:35:24.797Z,99165.34
2023-01-19T06:37:53.598Z,99180.34
2023-01-19T06:43:02.560Z,99165.22
2023-01-19T06:45:29.924Z,99161.03
2023-01-19T06:50:38.489Z,99162.69
2023-01-19T06:58:31.525Z,99176.44
2023-01-19T07:01:12.138Z,99176.09
2023-01-19T07:03:48.979Z,99194.06
2023-01-19T07:11:43.120Z,99193.41
2023-01-19T07:19:45.000Z,99185.50
2023-01-19T07:27:34.374Z,99203.44
2023-01-19T07:32:45.753Z,99207.00
2023-01-19T07:35:13.014Z,99204.22
2023-01-19T07:37:42.517Z,99206.09
2023-01-19T07:40:10.011Z,99208.19
2023-01-19T07:42:38.907Z,99236.13
2023-01-19T07:45:07.627Z,99246.22
2023-01-19T07:47:35.438Z,99246.22
2023-01-19T07:50:07.557Z,99247.91
2023-01-19T07:52:35.680Z,99250.44
2023-01-19T07:55:05.317Z,99251.00
2023-01-19T07:57:37.419Z,99257.56
2023-01-19T08:00:06.635Z,99244.88
2023-01-19T08:02:44.385Z,99247.66
2023-01-19T08:05:11.835Z,99244.03
2023-01-19T08:07:41.149Z,99274.38
2023-01-19T08:10:17.860Z,99266.34
2023-01-19T08:12:47.227Z,99273.69
2023-01-19T08:18:03.193Z,99272.06
2023-01-19T08:20:30.948Z,99281.91
2023-01-19T08:25:46.841Z,99290.19
2023-01-19T08:39:07.098Z,99312.59
2023-01-19T09:00:43.947Z,99290.63
2023-01-19T09:19:32.904Z,99292.59
2023-01-19T09:57:29.852Z,99288.88
